METAR Data
IDs: Format: Raw Decoded Include TAF

Data at: 0149 UTC 20 Jan 2022

ETSL 200120Z AUTO 23014KT 9999 // ////// 02/M03 Q1023 ///